This is the latest recevied weather packets stored in our database for station/object KC0SIQ-13. If no packets are shown the sender has not sent any weather packets the latest 10 day(s).
| Time | Temp. | Humidity | Pressure | Rain* | Wind** | Luminosity | Snow |
|---|---|---|---|---|---|---|---|
| 1777903306 | 10.56° C | 58% | 1006.9 hPa | 0 mm | - | 96 W/m² | - |
| 1777903003 | 10° C | 60% | 1006.8 hPa | 0 mm | - | 92 W/m² | - |
| 1777902699 | 9.44° C | 61% | 1006.6 hPa | 0 mm | - | 87 W/m² | - |
| 1777902397 | 8.89° C | 63% | 1006.8 hPa | 0 mm | - | 80 W/m² | - |
| 1777902093 | 8.89° C | 64% | 1006.8 hPa | 0 mm | - | 72 W/m² | - |
| 1777901792 | 8.33° C | 65% | 1007 hPa | 0 mm | - | 63 W/m² | - |
| 1777901489 | 7.78° C | 65% | 1007.1 hPa | 0 mm | - | 58 W/m² | - |
| 1777901186 | 7.78° C | 65% | 1007 hPa | 0 mm | - | 58 W/m² | - |
| 1777900884 | 7.22° C | 67% | 1007.3 hPa | 0 mm | - | 53 W/m² | - |
| 1777900581 | 6.67° C | 69% | 1007 hPa | 0 mm | - | 50 W/m² | - |
| 1777900278 | 6.67° C | 69% | 1007.1 hPa | 0 mm | - | 47 W/m² | - |
| 1777899974 | 6.11° C | 70% | 1006.9 hPa | 0 mm | - | 47 W/m² | - |
| 1777899671 | 5° C | 75% | 1006.7 hPa | 0 mm | - | 48 W/m² | - |
| 1777899369 | 4.44° C | 76% | 1006.7 hPa | 0 mm | - | 45 W/m² | - |
| 1777899067 | 3.89° C | 78% | 1006.9 hPa | 0 mm | - | 37 W/m² | - |
| 1777898763 | 3.89° C | 79% | 1007 hPa | 0 mm | - | 23 W/m² | - |
| 1777898461 | 3.89° C | 79% | 1006.9 hPa | 0 mm | - | 17 W/m² | - |
| 1777898159 | 3.89° C | 79% | 1006.9 hPa | 0 mm | - | 14 W/m² | - |
| 1777897855 | 3.33° C | 79% | 1006.8 hPa | 0 mm | - | 14 W/m² | - |
| 1777897551 | 3.33° C | 78% | 1006.7 hPa | 0 mm | - | 13 W/m² | - |
| 1777897247 | 3.33° C | 78% | 1006.9 hPa | 0 mm | - | 10 W/m² | - |
| 1777896943 | 3.33° C | 78% | 1006.8 hPa | 0 mm | - | 6 W/m² | - |
| 1777896641 | 3.33° C | 78% | 1006.8 hPa | 0 mm | - | 4 W/m² | - |
| 1777896337 | 3.33° C | 78% | 1006.9 hPa | 0 mm | - | 3 W/m² | - |
| 1777896036 | 3.33° C | 78% | 1006.7 hPa | 0 mm | - | 1 W/m² | - |
* Rain latest hour (hover to see other rain measurements)
** Current wind speed in m/s (hover to see current wind gust speed)